createdAt,value
2023-02-06T00:03:50.235Z,0.04
2023-02-06T00:08:49.139Z,0.04
2023-02-06T00:13:48.971Z,0.04
2023-02-06T00:18:48.201Z,0.05
2023-02-06T00:23:49.339Z,0.05
2023-02-06T00:28:47.750Z,0.04
2023-02-06T00:33:48.013Z,0.05
2023-02-06T00:38:45.536Z,0.04
2023-02-06T00:43:45.754Z,0.04
2023-02-06T00:48:44.522Z,0.04
2023-02-06T00:53:44.375Z,0.05
2023-02-06T00:58:43.685Z,0.04
2023-02-06T01:03:43.889Z,0.04
2023-02-06T01:08:43.823Z,0.04
2023-02-06T01:13:43.456Z,0.04
2023-02-06T01:18:44.425Z,0.05
2023-02-06T01:23:41.146Z,0.05
2023-02-06T01:28:40.828Z,0.05
2023-02-06T01:33:39.982Z,0.04
2023-02-06T01:38:39.854Z,0.04
2023-02-06T01:43:37.691Z,0.04
2023-02-06T01:48:37.056Z,0.04
2023-02-06T01:53:36.092Z,0.04
2023-02-06T01:58:35.935Z,0.05
2023-02-06T01:59:57.320Z,0.05
2023-02-06T02:04:57.482Z,0.04
2023-02-06T02:09:57.714Z,0.04
2023-02-06T02:14:57.601Z,0.05
2023-02-06T02:19:54.538Z,0.04
2023-02-06T02:24:54.669Z,0.04
2023-02-06T02:29:53.935Z,0.04
2023-02-06T02:34:54.096Z,0.04
2023-02-06T02:39:52.986Z,0.03
2023-02-06T02:44:53.355Z,0.04
2023-02-06T02:49:52.576Z,0.04
2023-02-06T02:54:52.828Z,0.05
2023-02-06T02:59:00.700Z,0.04
2023-02-06T03:08:57.611Z,0.04
2023-02-06T03:13:56.529Z,0.04
2023-02-06T03:18:56.517Z,0.04
2023-02-06T03:23:54.741Z,0.04
2023-02-06T03:28:54.724Z,0.04
2023-02-06T03:33:53.240Z,0.04
2023-02-06T03:38:53.861Z,0.05
2023-02-06T03:43:50.157Z,0.05
2023-02-06T03:48:50.577Z,0.05
2023-02-06T03:53:49.776Z,0.05
2023-02-06T03:58:49.711Z,0.04
2023-02-06T04:03:47.162Z,0.04
2023-02-06T04:08:47.489Z,0.05
2023-02-06T04:13:46.736Z,0.05
2023-02-06T04:18:48.230Z,0.04
2023-02-06T04:23:44.345Z,0.04
2023-02-06T04:28:45.365Z,0.05
2023-02-06T04:33:44.114Z,0.04
2023-02-06T04:38:43.831Z,0.05
2023-02-06T04:43:41.464Z,0.05
2023-02-06T04:48:41.377Z,0.04
2023-02-06T04:53:40.109Z,0.05
2023-02-06T04:58:39.920Z,0.05
2023-02-06T05:03:39.211Z,0.05
2023-02-06T05:08:39.119Z,0.05
2023-02-06T05:13:38.627Z,0.05
2023-02-06T05:18:38.729Z,0.04
2023-02-06T05:23:36.510Z,0.04
2023-02-06T05:28:36.765Z,0.04
2023-02-06T05:33:35.703Z,0.04
2023-02-06T05:38:35.678Z,0.05
2023-02-06T05:43:34.662Z,0.04
2023-02-06T05:48:34.861Z,0.04
2023-02-06T05:53:34.473Z,0.04
2023-02-06T05:58:34.206Z,0.05
2023-02-06T05:59:57.528Z,0.05
2023-02-06T06:04:54.714Z,0.04
2023-02-06T06:09:54.104Z,0.04
2023-02-06T06:14:53.900Z,0.05
2023-02-06T06:24:51.299Z,0.05
2023-02-06T06:29:50.503Z,0.06
2023-02-06T06:34:49.903Z,0.07
2023-02-06T06:39:49.416Z,0.09
2023-02-06T06:44:49.130Z,0.15
2023-02-06T06:49:49.389Z,0.25
2023-02-06T06:54:48.393Z,0.28
2023-02-06T06:59:14.711Z,0.3
2023-02-06T07:04:13.100Z,0.38
2023-02-06T07:09:12.425Z,0.41
2023-02-06T07:14:12.189Z,0.59
2023-02-06T07:19:11.364Z,0.8
2023-02-06T07:24:10.882Z,0.98
2023-02-06T07:29:10.234Z,1.17
2023-02-06T07:34:09.578Z,1.4
2023-02-06T07:39:09.127Z,1.56
2023-02-06T07:44:10.438Z,1.78
2023-02-06T07:49:06.898Z,2
2023-02-06T07:54:07.274Z,2.22
2023-02-06T07:58:53.573Z,2.38
2023-02-06T08:03:53.703Z,2.61
2023-02-06T08:08:51.137Z,2.78
2023-02-06T08:13:51.863Z,3.11
2023-02-06T08:18:50.131Z,3.48
2023-02-06T08:23:50.003Z,3.48
2023-02-06T08:28:48.076Z,3.86
2023-02-06T08:33:48.239Z,4.13
2023-02-06T08:38:48.161Z,4.4
2023-02-06T08:43:47.795Z,4.24
2023-02-06T08:48:44.980Z,4.38
2023-02-06T08:53:45.070Z,4.85
2023-02-06T08:58:44.209Z,5.49
2023-02-06T09:00:14.855Z,5.67
2023-02-06T09:05:06.785Z,6.12
2023-02-06T09:10:05.813Z,6.11
2023-02-06T09:15:05.578Z,6.08
2023-02-06T09:20:05.208Z,6.2
2023-02-06T09:25:06.204Z,6.35
2023-02-06T09:30:04.086Z,6.76
2023-02-06T09:35:03.293Z,8.23
2023-02-06T09:40:02.925Z,7.85
2023-02-06T09:45:02.718Z,8.1
2023-02-06T09:50:00.156Z,7.73
2023-02-06T09:55:00.276Z,7.8
2023-02-06T09:59:31.113Z,7.7
2023-02-06T10:04:31.267Z,4.66
2023-02-06T10:09:30.667Z,6.05
2023-02-06T10:14:32.293Z,4.08
2023-02-06T10:19:31.798Z,4.94
2023-02-06T10:24:28.568Z,4.6
2023-02-06T10:29:28.331Z,5.84
2023-02-06T10:34:29.877Z,6.22
2023-02-06T10:39:27.144Z,5.53
2023-02-06T10:44:27.051Z,6.28
2023-02-06T10:49:27.438Z,6.25
2023-02-06T10:54:14.446Z,5.65
2023-02-06T10:58:59.503Z,5.54
2023-02-06T11:03:58.712Z,5.94
2023-02-06T11:08:58.855Z,5.49
2023-02-06T11:13:57.750Z,5.62
2023-02-06T11:18:57.521Z,5.99
2023-02-06T11:23:58.175Z,6.12
2023-02-06T11:28:57.101Z,5.9
2023-02-06T11:33:58.539Z,5.85
2023-02-06T11:38:54.728Z,6.11
2023-02-06T11:43:54.695Z,6.46
2023-02-06T11:48:54.070Z,6.12
2023-02-06T11:53:53.821Z,6.45
2023-02-06T11:58:53.660Z,6.15
2023-02-06T12:03:53.639Z,5.73
2023-02-06T12:08:53.549Z,6.02
2023-02-06T12:13:54.676Z,5.93
2023-02-06T12:18:51.675Z,6.42
2023-02-06T12:23:51.171Z,7.36
2023-02-06T12:28:50.118Z,7.56
2023-02-06T12:33:50.315Z,7.6
2023-02-06T12:38:47.754Z,7.04
2023-02-06T12:43:47.606Z,7.67
2023-02-06T12:48:46.685Z,6.55
2023-02-06T12:53:46.858Z,6.66
2023-02-06T12:58:45.882Z,7.31
2023-02-06T13:03:45.690Z,7.82
2023-02-06T13:08:45.989Z,7.8
2023-02-06T13:13:45.246Z,7.48
2023-02-06T13:18:46.691Z,7.44
2023-02-06T13:23:44.106Z,7.63
2023-02-06T13:28:43.842Z,7.66
2023-02-06T13:33:43.273Z,6.88
2023-02-06T13:38:43.284Z,7.19
2023-02-06T13:43:42.897Z,7.41
2023-02-06T13:48:42.883Z,7.01
2023-02-06T13:53:42.091Z,6.03
2023-02-06T13:58:43.058Z,4.84
2023-02-06T14:00:20.090Z,4.86
2023-02-06T14:05:03.878Z,4.18
2023-02-06T14:10:03.929Z,3.67
2023-02-06T14:15:03.369Z,3.48
2023-02-06T14:20:00.224Z,3.91
2023-02-06T14:25:00.213Z,3.18
2023-02-06T14:29:59.378Z,3.92
2023-02-06T14:34:59.470Z,4.27
2023-02-06T14:40:05.203Z,3.85
2023-02-06T14:44:58.505Z,4.05
2023-02-06T14:50:52.323Z,3.99
2023-02-06T14:54:58.231Z,3.78
2023-02-06T14:59:28.638Z,3.21
2023-02-06T15:04:29.859Z,3.23
2023-02-06T15:09:26.783Z,2.9
2023-02-06T15:14:15.688Z,2.76
2023-02-06T15:19:15.463Z,2
2023-02-06T15:24:16.566Z,1.43
2023-02-06T15:29:13.376Z,1.66
2023-02-06T15:34:13.439Z,1.54
2023-02-06T15:39:12.820Z,1.14
2023-02-06T15:44:12.847Z,1.03
2023-02-06T15:49:09.948Z,0.9
2023-02-06T15:54:10.761Z,0.89
2023-02-06T15:58:58.788Z,0.85
2023-02-06T16:03:59.376Z,0.81
2023-02-06T16:08:57.669Z,0.64
2023-02-06T16:13:57.880Z,0.5
2023-02-06T16:18:57.334Z,0.4
2023-02-06T16:23:57.355Z,0.31
2023-02-06T16:28:58.941Z,0.28
2023-02-06T16:33:54.696Z,0.19
2023-02-06T16:39:06.342Z,0.12
2023-02-06T16:43:53.800Z,0.07
2023-02-06T16:48:53.960Z,0.06
2023-02-06T16:53:52.757Z,0.05
2023-02-06T16:58:53.090Z,0.05
2023-02-06T17:03:52.404Z,0.05
2023-02-06T17:08:53.613Z,0.04
2023-02-06T17:13:49.463Z,0.04
2023-02-06T17:18:49.788Z,0.04
2023-02-06T17:23:49.062Z,0.04
2023-02-06T17:28:49.293Z,0.04
2023-02-06T17:33:46.598Z,0.04
2023-02-06T17:38:46.587Z,0.05
2023-02-06T17:43:45.543Z,0.05
2023-02-06T17:48:45.616Z,0.04
2023-02-06T17:53:44.859Z,0.04
2023-02-06T17:58:44.849Z,0.05
2023-02-06T18:03:43.817Z,0.04
2023-02-06T18:08:43.425Z,0.04
2023-02-06T18:13:44.743Z,0.05
2023-02-06T18:18:41.650Z,0.04
2023-02-06T18:23:41.153Z,0.04
2023-02-06T18:28:40.052Z,0.04
2023-02-06T18:33:39.888Z,0.04
2023-02-06T18:38:38.935Z,0.04
2023-02-06T18:43:39.550Z,0.05
2023-02-06T18:48:38.592Z,0.05
2023-02-06T18:53:40.333Z,0.05
2023-02-06T18:58:36.218Z,0.04
2023-02-06T18:59:57.690Z,0.04
2023-02-06T19:04:57.046Z,0.04
2023-02-06T19:09:56.979Z,0.04
2023-02-06T19:14:54.743Z,0.04
2023-02-06T19:19:54.564Z,0.05
2023-02-06T19:24:54.065Z,0.04
2023-02-06T19:29:53.849Z,0.05
2023-02-06T19:34:53.193Z,0.04
2023-02-06T19:39:52.926Z,0.04
2023-02-06T19:44:52.992Z,0.04
2023-02-06T19:49:52.248Z,0.04
2023-02-06T19:54:50.493Z,0.05
2023-02-06T19:59:16.163Z,0.04
2023-02-06T20:04:15.721Z,0.05
2023-02-06T20:09:15.384Z,0.04
2023-02-06T20:14:15.233Z,0.04
2023-02-06T20:19:14.589Z,0.05
2023-02-06T20:24:14.781Z,0.04
2023-02-06T20:29:14.947Z,0.04
2023-02-06T20:34:12.685Z,0.04
2023-02-06T20:39:12.644Z,0.04
2023-02-06T20:44:11.664Z,0.04
2023-02-06T20:49:11.669Z,0.04
2023-02-06T20:54:10.850Z,0.04
2023-02-06T20:58:55.274Z,0.04
2023-02-06T21:03:54.708Z,0.04
2023-02-06T21:08:54.375Z,0.04
2023-02-06T21:13:55.063Z,0.04
2023-02-06T21:18:52.128Z,0.04
2023-02-06T21:23:52.213Z,0.04
2023-02-06T21:28:52.053Z,0.05
2023-02-06T21:33:51.547Z,0.05
2023-02-06T21:38:51.033Z,0.05
2023-02-06T21:43:50.910Z,0.04
2023-02-06T21:48:50.550Z,0.04
2023-02-06T21:53:51.794Z,0.04
2023-02-06T21:58:47.829Z,0.04
2023-02-06T22:03:48.506Z,0.04
2023-02-06T22:08:47.325Z,0.04
2023-02-06T22:13:47.429Z,0.04
2023-02-06T22:18:45.093Z,0.04
2023-02-06T22:23:45.344Z,0.04
2023-02-06T22:28:44.326Z,0.04
2023-02-06T22:33:44.243Z,0.04
2023-02-06T22:38:44.031Z,0.05
2023-02-06T22:43:43.744Z,0.04
2023-02-06T22:48:42.244Z,0.05
2023-02-06T22:53:42.658Z,0.04
2023-02-06T22:58:43.261Z,0.04
2023-02-06T23:03:39.282Z,0.05
2023-02-06T23:08:39.037Z,0.04
2023-02-06T23:13:38.166Z,0.05
2023-02-06T23:18:37.880Z,0.04
2023-02-06T23:23:37.090Z,0.04
2023-02-06T23:28:37.649Z,0.04
2023-02-06T23:33:36.970Z,0.04
2023-02-06T23:38:37.982Z,0.05
2023-02-06T23:43:34.502Z,0.04
2023-02-06T23:48:34.883Z,0.05
2023-02-06T23:53:34.034Z,0.04
2023-02-06T23:58:33.851Z,0.05
2023-02-06T23:59:55.962Z,0.05
